createdAt,value
2024-03-13T00:00:05.748Z,5.87
2024-03-13T00:02:43.476Z,5.88
2024-03-13T00:05:14.228Z,5.89
2024-03-13T00:07:44.992Z,5.89
2024-03-13T00:10:16.072Z,5.89
2024-03-13T00:12:46.835Z,5.93
2024-03-13T00:15:20.038Z,5.94
2024-03-13T00:17:50.760Z,5.93
2024-03-13T00:20:21.363Z,5.92
2024-03-13T00:22:52.071Z,5.91
2024-03-13T00:25:22.858Z,5.88
2024-03-13T00:27:54.214Z,5.82
2024-03-13T00:30:27.490Z,5.71
2024-03-13T00:32:58.599Z,5.62
2024-03-13T00:35:29.280Z,5.56
2024-03-13T00:38:00.965Z,5.57
2024-03-13T00:40:31.675Z,5.60
2024-03-13T00:43:02.326Z,5.66
2024-03-13T00:45:35.507Z,5.70
2024-03-13T00:48:06.528Z,5.73
2024-03-13T00:50:37.161Z,5.77
2024-03-13T00:53:10.243Z,5.80
2024-03-13T00:55:40.771Z,5.82
2024-03-13T00:58:11.746Z,5.84
2024-03-13T01:00:44.984Z,5.84
2024-03-13T01:03:15.583Z,5.85
2024-03-13T01:05:46.216Z,5.84
2024-03-13T01:08:16.748Z,5.83
2024-03-13T01:10:47.583Z,5.83
2024-03-13T01:13:20.334Z,5.82
2024-03-13T01:15:53.690Z,5.81
2024-03-13T01:18:25.744Z,5.79
2024-03-13T01:20:56.822Z,5.80
2024-03-13T01:23:27.648Z,5.80
2024-03-13T01:26:01.105Z,5.79
2024-03-13T01:28:31.682Z,5.77
2024-03-13T01:31:07.578Z,5.77
2024-03-13T01:33:39.808Z,5.75
2024-03-13T01:36:11.368Z,5.75
2024-03-13T01:38:39.458Z,5.76
2024-03-13T01:41:37.260Z,5.75
2024-03-13T01:44:20.394Z,5.74
2024-03-13T01:47:05.855Z,5.72
2024-03-13T01:49:48.798Z,5.75
2024-03-13T01:52:34.367Z,5.76
2024-03-13T01:55:11.977Z,5.74
2024-03-13T01:57:55.656Z,5.70
2024-03-13T02:00:39.595Z,5.75
2024-03-13T02:03:15.154Z,5.76
2024-03-13T02:05:46.641Z,5.78
2024-03-13T02:08:21.281Z,5.79
2024-03-13T02:10:52.011Z,5.78
2024-03-13T02:13:22.822Z,5.78
2024-03-13T02:15:53.661Z,5.78
2024-03-13T02:18:31.170Z,5.78
2024-03-13T02:21:02.700Z,5.79
2024-03-13T02:23:35.965Z,5.78
2024-03-13T02:26:06.873Z,5.76
2024-03-13T02:28:38.809Z,5.76
2024-03-13T02:31:11.135Z,5.75
2024-03-13T02:33:42.084Z,5.73
2024-03-13T02:36:12.757Z,5.70
2024-03-13T02:38:46.546Z,5.69
2024-03-13T02:41:17.372Z,5.68
2024-03-13T02:43:47.981Z,5.67
2024-03-13T02:46:19.023Z,5.66
2024-03-13T02:48:49.678Z,5.66
2024-03-13T02:51:20.309Z,5.63
2024-03-13T02:53:53.666Z,5.61
2024-03-13T02:56:24.542Z,5.62
2024-03-13T02:58:55.057Z,5.60
2024-03-13T03:01:25.723Z,5.61
2024-03-13T03:03:56.427Z,5.61
2024-03-13T03:06:26.957Z,5.59
2024-03-13T03:09:00.176Z,5.58
2024-03-13T03:11:30.736Z,5.58
2024-03-13T03:14:01.384Z,5.58
2024-03-13T03:16:32.032Z,5.58
2024-03-13T03:19:03.262Z,5.58
2024-03-13T03:21:34.470Z,5.58
2024-03-13T03:24:08.157Z,5.56
2024-03-13T03:26:38.821Z,5.56
2024-03-13T03:29:09.957Z,5.55
2024-03-13T03:31:41.169Z,5.54
2024-03-13T03:34:11.755Z,5.52
2024-03-13T03:36:44.560Z,5.54
2024-03-13T03:39:19.397Z,5.52
2024-03-13T03:41:50.322Z,5.50
2024-03-13T03:44:20.850Z,5.51
2024-03-13T03:46:51.453Z,5.49
2024-03-13T03:49:24.421Z,5.49
2024-03-13T03:51:55.317Z,5.49
2024-03-13T03:54:28.544Z,5.66
2024-03-13T03:56:59.538Z,5.79
2024-03-13T03:59:30.240Z,5.91
2024-03-13T04:02:00.847Z,6.03
2024-03-13T04:04:31.534Z,6.14
2024-03-13T04:07:02.222Z,6.24
2024-03-13T04:09:35.548Z,6.35
2024-03-13T04:12:06.233Z,6.43
2024-03-13T04:14:36.876Z,6.52
2024-03-13T04:17:08.125Z,6.58
2024-03-13T04:19:41.145Z,6.66
2024-03-13T04:22:11.842Z,6.73
2024-03-13T04:24:45.189Z,6.79
2024-03-13T04:27:15.845Z,6.85
2024-03-13T04:32:22.470Z,6.93
2024-03-13T04:34:53.278Z,6.97
2024-03-13T04:37:24.905Z,6.99
2024-03-13T04:40:01.414Z,7.01
2024-03-13T04:42:34.287Z,7.05
2024-03-13T04:45:04.979Z,7.07
2024-03-13T04:47:40.837Z,7.07
2024-03-13T04:50:13.280Z,7.08
2024-03-13T04:52:43.879Z,7.10
2024-03-13T04:55:17.218Z,7.11
2024-03-13T04:57:48.939Z,7.14
2024-03-13T05:00:19.832Z,7.17
2024-03-13T05:02:50.450Z,7.19
2024-03-13T05:05:22.012Z,7.20
2024-03-13T05:07:55.965Z,7.22
2024-03-13T05:10:30.918Z,7.24
2024-03-13T05:13:02.585Z,7.25
2024-03-13T05:15:33.246Z,7.27
2024-03-13T05:18:04.053Z,7.28
2024-03-13T05:20:35.524Z,7.28
2024-03-13T05:23:07.948Z,7.31
2024-03-13T05:25:41.192Z,7.33
2024-03-13T05:28:11.970Z,7.36
2024-03-13T05:30:42.606Z,7.37
2024-03-13T05:33:13.242Z,7.39
2024-03-13T05:35:43.954Z,7.41
2024-03-13T05:38:14.955Z,7.42
2024-03-13T05:40:48.564Z,7.42
2024-03-13T05:43:21.545Z,7.43
2024-03-13T05:45:52.229Z,7.45
2024-03-13T05:48:23.447Z,7.44
2024-03-13T05:50:55.263Z,7.43
2024-03-13T05:53:25.930Z,7.44
2024-03-13T05:55:59.561Z,7.43
2024-03-13T05:58:30.297Z,7.43
2024-03-13T06:01:03.365Z,7.44
2024-03-13T06:03:34.317Z,7.44
2024-03-13T06:06:05.282Z,7.45
2024-03-13T06:08:36.140Z,7.49
2024-03-13T06:11:09.476Z,7.51
2024-03-13T06:13:40.153Z,7.55
2024-03-13T06:16:11.071Z,7.59
2024-03-13T06:18:42.116Z,7.66
2024-03-13T06:21:12.777Z,7.73
2024-03-13T06:23:49.678Z,7.77
2024-03-13T06:26:23.367Z,7.84
2024-03-13T06:29:06.303Z,7.89
2024-03-13T06:31:42.167Z,7.97
2024-03-13T06:34:13.160Z,8.00
2024-03-13T06:36:43.900Z,8.05
2024-03-13T06:39:14.860Z,8.07
2024-03-13T06:41:47.970Z,8.05
2024-03-13T06:44:19.164Z,8.05
2024-03-13T06:46:49.782Z,8.05
2024-03-13T06:49:20.630Z,8.04
2024-03-13T06:51:51.234Z,8.05
2024-03-13T06:54:22.158Z,8.07
2024-03-13T06:56:55.353Z,8.08
2024-03-13T06:59:26.321Z,8.19
2024-03-13T07:01:57.717Z,8.46
2024-03-13T07:04:28.505Z,8.80
2024-03-13T07:07:00.998Z,9.02
2024-03-13T07:09:31.894Z,9.15
2024-03-13T07:12:05.747Z,9.23
2024-03-13T07:14:36.437Z,9.27
2024-03-13T07:17:08.433Z,9.30
2024-03-13T07:19:39.523Z,9.33
2024-03-13T07:22:11.191Z,9.35
2024-03-13T07:24:41.787Z,9.35
2024-03-13T07:27:15.460Z,9.40
2024-03-13T07:29:46.171Z,9.49
2024-03-13T07:32:17.768Z,9.58
2024-03-13T07:34:48.732Z,9.62
2024-03-13T07:37:19.393Z,9.73
2024-03-13T07:39:50.064Z,9.81
2024-03-13T07:42:23.363Z,9.94
2024-03-13T07:44:56.050Z,10.08
2024-03-13T07:47:26.791Z,10.17
2024-03-13T07:49:57.463Z,10.20
2024-03-13T07:52:30.393Z,10.21
2024-03-13T07:55:01.241Z,10.21
2024-03-13T07:57:35.008Z,10.23
2024-03-13T08:00:05.632Z,10.24
2024-03-13T08:02:43.976Z,10.23
2024-03-13T08:05:16.109Z,10.21
2024-03-13T09:05:56.081Z,9.77
2024-03-13T09:08:41.351Z,9.77
2024-03-13T09:11:18.643Z,9.77
2024-03-13T09:13:49.754Z,9.79
2024-03-13T09:16:20.502Z,9.82
2024-03-13T09:18:53.753Z,9.86
2024-03-13T09:21:24.437Z,9.89
2024-03-13T09:23:55.388Z,9.93
2024-03-13T09:26:26.069Z,10.00
2024-03-13T09:28:57.283Z,10.04
2024-03-13T09:31:28.440Z,10.10
2024-03-13T09:34:01.650Z,10.15
2024-03-13T09:36:32.407Z,10.17
2024-03-13T09:39:03.120Z,10.22
2024-03-13T09:41:33.715Z,10.25
2024-03-13T09:44:06.112Z,10.27
2024-03-13T09:46:39.099Z,10.27
2024-03-13T09:49:12.485Z,10.28
2024-03-13T09:51:45.070Z,10.31
2024-03-13T09:54:18.389Z,10.32
2024-03-13T09:56:51.307Z,10.34
2024-03-13T09:59:21.994Z,10.38
2024-03-13T10:01:53.371Z,10.40
2024-03-13T10:04:28.696Z,10.43
2024-03-13T10:07:03.607Z,10.40
2024-03-13T10:09:37.225Z,10.43
2024-03-13T10:12:14.081Z,10.42
2024-03-13T10:14:47.063Z,10.39
2024-03-13T10:17:22.961Z,10.37
2024-03-13T10:19:58.391Z,10.38
2024-03-13T10:22:29.399Z,10.38
2024-03-13T10:25:03.018Z,10.39
2024-03-13T10:27:35.123Z,10.42
2024-03-13T10:30:06.386Z,10.42
2024-03-13T10:32:37.857Z,10.44
2024-03-13T10:35:16.355Z,10.45
2024-03-13T10:37:47.510Z,10.46
2024-03-13T10:40:18.250Z,10.49
2024-03-13T10:42:49.444Z,10.54
2024-03-13T10:45:22.067Z,10.56
2024-03-13T10:47:53.483Z,10.57
2024-03-13T10:50:26.768Z,10.58
2024-03-13T10:53:00.538Z,10.58
2024-03-13T10:55:36.860Z,10.59
2024-03-13T10:58:08.790Z,10.63
2024-03-13T11:00:40.229Z,10.67
2024-03-13T11:03:15.019Z,10.69
2024-03-13T11:05:50.923Z,10.74
2024-03-13T11:08:23.273Z,10.75
2024-03-13T11:11:06.887Z,10.76
2024-03-13T11:13:51.756Z,10.76
2024-03-13T11:16:25.191Z,10.75
2024-03-13T11:18:57.065Z,10.76
2024-03-13T11:21:43.249Z,10.75
2024-03-13T11:24:16.744Z,10.76
2024-03-13T11:26:50.549Z,10.76
2024-03-13T11:29:21.924Z,10.79
2024-03-13T11:31:54.091Z,10.82
2024-03-13T11:34:27.008Z,10.88
2024-03-13T11:37:00.332Z,10.90
2024-03-13T11:39:31.160Z,10.95
2024-03-13T11:42:10.553Z,10.99
2024-03-13T11:44:41.599Z,11.06
2024-03-13T11:47:16.643Z,11.14
2024-03-13T11:49:47.764Z,11.16
2024-03-13T11:52:21.525Z,11.22
2024-03-13T11:54:52.113Z,11.26
2024-03-13T11:57:28.486Z,11.29
2024-03-13T11:59:59.170Z,11.30
2024-03-13T12:02:46.385Z,11.33
2024-03-13T12:05:35.459Z,11.40
2024-03-13T12:08:10.712Z,11.45
2024-03-13T12:10:42.469Z,11.50
2024-03-13T12:13:18.943Z,11.55
2024-03-13T12:15:49.667Z,11.57
2024-03-13T12:18:20.726Z,11.59
2024-03-13T12:20:51.893Z,11.62
2024-03-13T12:23:25.110Z,11.64
2024-03-13T12:25:57.816Z,11.68
2024-03-13T12:28:28.697Z,11.72
2024-03-13T12:31:00.285Z,11.73
2024-03-13T12:33:31.160Z,11.77
2024-03-13T12:36:04.477Z,11.81
2024-03-13T12:38:42.688Z,11.89
2024-03-13T12:41:13.545Z,11.94
2024-03-13T12:43:46.110Z,11.98
2024-03-13T12:46:18.252Z,12.02
2024-03-13T12:48:51.258Z,12.06
2024-03-13T12:51:21.956Z,12.07
2024-03-13T12:53:55.446Z,12.03
2024-03-13T12:56:28.501Z,12.02
2024-03-13T12:59:01.274Z,11.99
2024-03-13T13:01:32.406Z,11.98
2024-03-13T13:04:03.795Z,11.96
2024-03-13T13:06:34.489Z,11.97
2024-03-13T13:09:12.646Z,11.99
2024-03-13T13:11:45.988Z,11.96
2024-03-13T13:14:17.284Z,11.98
2024-03-13T13:16:48.119Z,11.91
2024-03-13T13:19:18.879Z,11.84
2024-03-13T13:21:49.441Z,11.76
2024-03-13T13:24:24.371Z,11.70
2024-03-13T13:26:55.081Z,11.64
2024-03-13T13:29:25.627Z,11.60
2024-03-13T13:31:56.263Z,11.59
2024-03-13T13:34:26.927Z,11.59
2024-03-13T13:36:57.610Z,11.60
2024-03-13T13:39:30.890Z,11.61
2024-03-13T13:42:01.717Z,11.64
2024-03-13T13:44:32.341Z,11.69
2024-03-13T13:47:02.994Z,11.77
2024-03-13T13:49:33.910Z,11.85
2024-03-13T13:52:04.463Z,11.93
2024-03-13T13:54:37.595Z,12.02
2024-03-13T13:57:08.385Z,12.07
2024-03-13T13:59:41.398Z,12.11
2024-03-13T14:02:13.434Z,12.13
2024-03-13T14:04:44.275Z,12.14
2024-03-13T14:07:15.359Z,12.14
2024-03-13T14:09:48.575Z,12.11
2024-03-13T14:12:24.834Z,12.08
2024-03-13T14:14:57.483Z,12.05
2024-03-13T14:17:28.808Z,11.99
2024-03-13T14:19:59.913Z,11.90
2024-03-13T14:22:30.474Z,11.84
2024-03-13T14:25:03.687Z,11.77
2024-03-13T14:27:34.353Z,11.69
2024-03-13T14:30:05.040Z,11.61
2024-03-13T14:32:36.859Z,11.57
2024-03-13T14:35:10.688Z,11.51
2024-03-13T14:37:41.651Z,11.48
2024-03-13T14:40:19.379Z,11.45
2024-03-13T14:42:50.899Z,11.41
2024-03-13T14:45:22.190Z,11.38
2024-03-13T14:47:53.090Z,11.34
2024-03-13T14:50:23.834Z,11.31
2024-03-13T14:53:02.965Z,11.28
2024-03-13T14:55:39.637Z,11.25
2024-03-13T14:58:11.153Z,11.24
2024-03-13T15:00:41.973Z,11.20
2024-03-13T15:03:12.669Z,11.18
2024-03-13T15:05:44.345Z,11.16
2024-03-13T15:08:15.487Z,11.15
2024-03-13T15:10:48.710Z,11.12
2024-03-13T15:13:19.834Z,11.11
2024-03-13T15:15:50.431Z,11.08
2024-03-13T15:18:21.173Z,11.08
2024-03-13T15:20:51.945Z,11.06
2024-03-13T15:23:23.494Z,11.03
2024-03-13T15:25:56.783Z,11.00
2024-03-13T15:28:27.408Z,10.97
2024-03-13T15:30:58.035Z,10.94
2024-03-13T15:33:31.422Z,10.92
2024-03-13T15:36:02.066Z,10.92
2024-03-13T15:38:32.833Z,10.91
2024-03-13T15:41:06.285Z,10.90
2024-03-13T15:43:36.942Z,10.88
2024-03-13T15:46:08.250Z,10.86
2024-03-13T15:48:40.058Z,10.85
2024-03-13T15:51:10.854Z,10.84
2024-03-13T15:53:44.721Z,10.84
2024-03-13T15:56:18.754Z,10.81
2024-03-13T15:58:49.530Z,10.80
2024-03-13T16:01:20.103Z,10.81
2024-03-13T16:03:50.716Z,10.80
2024-03-13T16:06:22.932Z,10.80
2024-03-13T16:09:01.398Z,10.77
2024-03-13T16:11:35.293Z,10.73
2024-03-13T16:14:07.404Z,10.71
2024-03-13T16:16:38.325Z,10.69
2024-03-13T16:19:09.575Z,10.66
2024-03-13T16:21:40.221Z,10.64
2024-03-13T16:24:13.209Z,10.63
2024-03-13T16:26:46.598Z,10.59
2024-03-13T16:29:17.270Z,10.57
2024-03-13T16:31:48.231Z,10.52
2024-03-13T16:34:18.954Z,10.11
2024-03-13T16:36:49.728Z,9.34
2024-03-13T16:39:21.484Z,8.59
2024-03-13T16:41:54.735Z,7.96
2024-03-13T16:44:25.376Z,7.52
2024-03-13T16:46:55.995Z,7.23
2024-03-13T16:49:26.682Z,6.97
2024-03-13T16:51:57.301Z,6.76
2024-03-13T16:54:28.762Z,6.55
2024-03-13T16:57:02.066Z,6.43
2024-03-13T16:59:33.091Z,6.48
2024-03-13T17:02:03.901Z,6.57
2024-03-13T17:04:34.490Z,6.67
2024-03-13T17:07:05.367Z,6.82
2024-03-13T17:09:36.079Z,6.97
2024-03-13T17:12:09.628Z,7.12
2024-03-13T17:14:41.485Z,7.28
2024-03-13T17:17:12.219Z,7.43
2024-03-13T17:19:43.196Z,7.57
2024-03-13T17:22:14.002Z,7.68
2024-03-13T17:24:44.738Z,7.80
2024-03-13T17:27:18.042Z,7.91
2024-03-13T17:29:48.688Z,7.89
2024-03-13T17:32:21.037Z,7.87
2024-03-13T17:34:52.741Z,7.75
2024-03-13T17:37:23.976Z,7.71
2024-03-13T17:39:55.716Z,7.57
2024-03-13T17:42:28.949Z,7.33
2024-03-13T17:45:00.040Z,7.30
2024-03-13T17:47:30.853Z,7.24
2024-03-13T17:50:04.468Z,7.27
2024-03-13T17:52:35.521Z,7.23
2024-03-13T17:55:07.752Z,7.09
2024-03-13T17:57:41.077Z,6.90
2024-03-13T18:00:12.889Z,6.92
2024-03-13T18:02:43.852Z,6.91
2024-03-13T18:05:15.746Z,6.82
2024-03-13T18:07:48.238Z,6.69
2024-03-13T18:10:21.454Z,6.72
2024-03-13T18:12:54.910Z,6.72
2024-03-13T18:15:25.728Z,6.65
2024-03-13T18:17:57.033Z,6.65
2024-03-13T18:20:27.678Z,6.74
2024-03-13T18:22:58.203Z,6.75
2024-03-13T18:25:28.797Z,6.79
2024-03-13T18:28:03.609Z,6.85
2024-03-13T18:30:36.783Z,6.82
2024-03-13T18:33:08.335Z,6.72
2024-03-13T18:35:39.190Z,6.76
2024-03-13T18:38:09.874Z,6.75
2024-03-13T18:40:41.062Z,6.69
2024-03-13T18:43:14.292Z,6.52
2024-03-13T18:45:44.889Z,6.59
2024-03-13T18:48:15.709Z,6.64
2024-03-13T18:50:46.668Z,6.73
2024-03-13T18:53:17.646Z,6.78
2024-03-13T18:55:49.397Z,6.74
2024-03-13T18:58:22.947Z,6.58
2024-03-13T19:00:53.565Z,6.58
2024-03-13T19:03:24.220Z,6.60
2024-03-13T19:05:55.050Z,6.53
2024-03-13T19:08:29.402Z,6.51
2024-03-13T19:11:00.104Z,6.59
2024-03-13T19:13:33.411Z,6.56
2024-03-13T19:16:04.883Z,6.48
2024-03-13T19:18:35.740Z,6.45
2024-03-13T19:21:06.799Z,6.53
2024-03-13T19:23:38.558Z,6.59
2024-03-13T19:26:09.146Z,6.69
2024-03-13T19:28:42.459Z,6.67
2024-03-13T19:31:17.928Z,6.55
2024-03-13T19:33:51.183Z,6.43
2024-03-13T19:36:26.761Z,6.50
2024-03-13T19:38:57.492Z,6.53
2024-03-13T19:41:28.191Z,6.59
2024-03-13T19:44:01.722Z,6.57
2024-03-13T19:46:32.844Z,6.49
2024-03-13T19:49:03.749Z,6.52
2024-03-13T19:51:35.938Z,6.57
2024-03-13T19:54:06.772Z,6.46
2024-03-13T19:56:37.479Z,6.32
2024-03-13T19:59:12.520Z,6.27
2024-03-13T20:01:43.255Z,6.35
2024-03-13T20:04:15.021Z,6.38
2024-03-13T20:06:46.757Z,6.49
2024-03-13T20:09:19.741Z,6.49
2024-03-13T20:11:51.453Z,6.39
2024-03-13T20:14:24.930Z,6.35
2024-03-13T20:16:55.522Z,6.40
2024-03-13T20:19:26.297Z,6.36
2024-03-13T20:21:59.297Z,6.37
2024-03-13T20:24:29.989Z,6.44
2024-03-13T20:27:00.670Z,6.43
2024-03-13T20:29:33.883Z,6.30
2024-03-13T20:32:04.855Z,6.23
2024-03-13T20:34:35.540Z,6.29
2024-03-13T20:37:06.157Z,6.28
2024-03-13T20:39:36.967Z,6.18
2024-03-13T20:42:07.845Z,6.26
2024-03-13T20:44:41.885Z,6.27
2024-03-13T20:47:13.164Z,6.21
2024-03-13T20:49:44.333Z,6.05
2024-03-13T20:52:15.225Z,6.09
2024-03-13T20:54:47.990Z,6.14
2024-03-13T20:57:18.709Z,6.10
2024-03-13T20:59:52.914Z,6.18
2024-03-13T21:02:23.943Z,6.23
2024-03-13T21:04:55.423Z,6.17
2024-03-13T21:07:26.065Z,6.01
2024-03-13T21:09:56.673Z,5.93
2024-03-13T21:12:27.376Z,6.02
2024-03-13T21:15:00.742Z,6.07
2024-03-13T21:17:31.774Z,6.14
2024-03-13T21:20:04.232Z,6.14
2024-03-13T21:22:35.205Z,6.05
2024-03-13T21:25:05.840Z,6.06
2024-03-13T21:27:36.575Z,6.08
2024-03-13T21:30:11.607Z,6.05
2024-03-13T21:32:42.439Z,5.94
2024-03-13T21:35:13.465Z,5.89
2024-03-13T21:37:44.091Z,5.98
2024-03-13T21:40:17.714Z,5.94
2024-03-13T21:42:50.212Z,5.93
2024-03-13T21:45:23.555Z,5.98
2024-03-13T21:47:54.736Z,5.98
2024-03-13T21:50:25.306Z,5.87
2024-03-13T21:52:56.072Z,5.78
2024-03-13T21:55:28.450Z,5.85
2024-03-13T21:57:59.001Z,5.91
2024-03-13T22:00:32.238Z,6.01
2024-03-13T22:03:03.554Z,6.08
2024-03-13T22:05:34.196Z,6.15
2024-03-13T22:08:04.751Z,6.13
2024-03-13T22:10:40.172Z,6.03
2024-03-13T22:13:11.440Z,5.81
2024-03-13T22:15:44.710Z,5.36
2024-03-13T22:18:15.412Z,4.84
2024-03-13T22:20:46.182Z,4.38
2024-03-13T22:23:17.407Z,4.07
2024-03-13T22:25:47.948Z,4.10
2024-03-13T22:28:18.615Z,4.27
2024-03-13T22:30:51.902Z,4.46
2024-03-13T22:33:22.620Z,4.65
2024-03-13T22:35:53.227Z,4.84
2024-03-13T22:38:23.814Z,5.02
2024-03-13T22:40:54.509Z,5.20
2024-03-13T22:43:25.226Z,5.36
2024-03-13T22:45:58.727Z,5.53
2024-03-13T22:48:29.362Z,5.66
2024-03-13T22:51:00.077Z,5.80
2024-03-13T22:53:30.939Z,5.91
2024-03-13T22:56:01.571Z,6.00
2024-03-13T22:58:32.133Z,6.10
2024-03-13T23:01:05.827Z,6.20
2024-03-13T23:03:36.618Z,6.28
2024-03-13T23:06:08.818Z,6.36
2024-03-13T23:08:39.953Z,6.41
2024-03-13T23:11:10.599Z,6.40
2024-03-13T23:13:41.562Z,6.41
2024-03-13T23:16:18.982Z,6.35
2024-03-13T23:18:49.801Z,6.31
2024-03-13T23:21:24.038Z,6.30
2024-03-13T23:23:56.018Z,6.26
2024-03-13T23:26:26.702Z,6.23
2024-03-13T23:28:59.748Z,6.20
2024-03-13T23:31:33.049Z,6.18
2024-03-13T23:34:05.638Z,6.17
2024-03-13T23:36:37.958Z,6.13
2024-03-13T23:39:10.603Z,6.04
2024-03-13T23:41:42.777Z,5.85
2024-03-13T23:44:13.385Z,5.66
2024-03-13T23:46:46.549Z,5.71
2024-03-13T23:49:17.256Z,5.72
2024-03-13T23:51:48.111Z,5.80
2024-03-13T23:54:18.716Z,5.81
2024-03-13T23:56:50.388Z,5.71
2024-03-13T23:59:21.630Z,5.56
